Time;durP1;ratioP1;P1;durP2;ratioP2;P2;SDS_P1;SDS_P2;PMS_P1;PMS_P2;Temp;Humidity;BMP_temperature;BMP_pressure;BME280_temperature;BME280_humidity;BME280_pressure;Samples;Min_cycle;Max_cycle;Signal;HPM_P1;HPM_P2
2021/01/28 00:00:39;;;;;;;17.75;12.80;;;;;;;;;;5113792;28;20019;-81
2021/01/28 00:03:06;;;;;;;22.67;15.18;;;;;;;;;;5095245;28;20059;-79
2021/01/28 00:05:33;;;;;;;34.38;19.45;;;;;;;;;;5113446;28;20466;-78
2021/01/28 00:07:59;;;;;;;33.28;18.83;;;;;;;;;;5113483;28;20463;-80
2021/01/28 00:10:26;;;;;;;28.73;20.67;;;;;;;;;;5113513;28;20020;-78
2021/01/28 00:12:52;;;;;;;32.78;21.70;;;;;;;;;;5113419;28;20526;-77
2021/01/28 00:15:20;;;;;;;25.15;18.08;;;;;;;;;;5113445;28;20027;-81
2021/01/28 00:17:46;;;;;;;21.98;14.88;;;;;;;;;;5113498;28;20035;-81
2021/01/28 00:20:16;;;;;;;18.15;12.43;;;;;;;;;;5093050;28;20055;-79
2021/01/28 00:22:43;;;;;;;8.98;6.70;;;;;;;;;;5093079;28;20106;-79
2021/01/28 00:25:10;;;;;;;7.35;5.60;;;;;;;;;;5074784;28;20452;-78
2021/01/28 00:27:36;;;;;;;8.10;5.70;;;;;;;;;;5093075;28;20091;-81
2021/01/28 00:30:03;;;;;;;9.00;5.85;;;;;;;;;;5092830;28;20028;-81
2021/01/28 00:32:29;;;;;;;8.32;5.55;;;;;;;;;;5093242;28;20058;-80
2021/01/28 00:34:55;;;;;;;10.40;5.32;;;;;;;;;;5093312;28;20371;-78
2021/01/28 00:37:21;;;;;;;10.32;7.55;;;;;;;;;;5092985;28;20077;-80
2021/01/28 00:39:48;;;;;;;12.68;9.05;;;;;;;;;;5096148;28;20056;-78
2021/01/28 00:42:14;;;;;;;12.00;7.45;;;;;;;;;;5096676;28;20038;-78
2021/01/28 00:44:40;;;;;;;16.52;11.48;;;;;;;;;;5096470;28;20032;-80
2021/01/28 00:47:06;;;;;;;18.85;12.82;;;;;;;;;;5096523;28;20024;-79
2021/01/28 00:49:32;;;;;;;20.40;11.30;;;;;;;;;;5096382;28;20485;-81
2021/01/28 00:51:58;;;;;;;15.82;10.13;;;;;;;;;;5096476;28;20032;-80
2021/01/28 00:54:24;;;;;;;21.05;11.75;;;;;;;;;;5096393;28;20030;-78
2021/01/28 00:56:50;;;;;;;18.90;11.90;;;;;;;;;;5096342;28;20127;-79
2021/01/28 00:59:16;;;;;;;18.17;11.95;;;;;;;;;;5096281;28;20036;-80
2021/01/28 01:01:42;;;;;;;21.17;14.63;;;;;;;;;;5096130;28;20024;-80
2021/01/28 01:04:09;;;;;;;20.50;14.30;;;;;;;;;;5095923;28;20044;-80
2021/01/28 01:06:35;;;;;;;16.48;10.48;;;;;;;;;;5096048;28;20528;-79
2021/01/28 01:09:01;;;;;;;13.23;8.18;;;;;;;;;;5096142;28;20054;-78
2021/01/28 01:11:27;;;;;;;9.38;7.00;;;;;;;;;;5096069;28;20050;-78
2021/01/28 01:13:54;;;;;;;11.90;7.15;;;;;;;;;;5096154;28;20028;-78
2021/01/28 01:16:20;;;;;;;12.25;6.13;;;;;;;;;;5077670;28;20437;-78
2021/01/28 01:18:46;;;;;;;8.85;5.30;;;;;;;;;;5095933;28;20542;-79
2021/01/28 01:21:12;;;;;;;11.38;6.22;;;;;;;;;;5108849;28;20074;-77
2021/01/28 01:23:38;;;;;;;11.05;6.55;;;;;;;;;;5113148;28;20024;-79
2021/01/28 01:26:04;;;;;;;8.50;5.63;;;;;;;;;;5095752;28;20028;-79
2021/01/28 01:28:31;;;;;;;9.00;6.10;;;;;;;;;;5095753;28;20379;-78
2021/01/28 01:30:58;;;;;;;9.95;5.93;;;;;;;;;;5095672;28;20379;-79
2021/01/28 01:33:24;;;;;;;9.82;5.95;;;;;;;;;;5095946;28;20360;-78
2021/01/28 01:35:50;;;;;;;10.23;6.05;;;;;;;;;;5116049;28;20024;-80
2021/01/28 01:38:16;;;;;;;8.13;5.57;;;;;;;;;;5115986;28;20073;-80
2021/01/28 01:40:50;;;;;;;12.43;5.60;;;;;;;;;;5115590;28;20429;-81
2021/01/28 01:43:16;;;;;;;10.05;6.65;;;;;;;;;;5116027;28;20386;-79
2021/01/28 01:45:42;;;;;;;8.88;6.03;;;;;;;;;;5115728;28;20093;-78
2021/01/28 01:48:15;;;;;;;6.97;5.63;;;;;;;;;;5115903;28;20051;-79
2021/01/28 01:50:41;;;;;;;10.02;6.57;;;;;;;;;;5114560;28;20059;-79
2021/01/28 01:53:11;;;;;;;11.05;6.28;;;;;;;;;;5115646;28;20039;-78
2021/01/28 01:55:37;;;;;;;9.25;6.47;;;;;;;;;;5115536;28;20063;-79
2021/01/28 01:58:05;;;;;;;11.15;6.25;;;;;;;;;;5115334;28;20078;-80
2021/01/28 02:00:31;;;;;;;10.93;6.32;;;;;;;;;;5115927;28;20031;-80
2021/01/28 02:03:00;;;;;;;9.35;6.15;;;;;;;;;;5097076;28;20019;-79
2021/01/28 02:05:31;;;;;;;10.32;6.78;;;;;;;;;;5115364;28;20036;-80
2021/01/28 02:07:59;;;;;;;13.07;7.80;;;;;;;;;;5112560;28;20030;-80
2021/01/28 02:10:25;;;;;;;11.18;6.55;;;;;;;;;;5108077;28;20459;-78
2021/01/28 02:12:54;;;;;;;12.85;7.55;;;;;;;;;;5115359;28;20034;-79
2021/01/28 02:15:21;;;;;;;9.82;7.00;;;;;;;;;;5115474;28;20023;-80
2021/01/28 02:17:50;;;;;;;9.18;6.22;;;;;;;;;;5115079;28;20478;-80
2021/01/28 02:20:28;;;;;;;11.00;7.78;;;;;;;;;;5115021;28;20057;-78
2021/01/28 02:23:13;;;;;;;11.15;7.63;;;;;;;;;;5096752;28;20027;-79
2021/01/28 02:25:39;;;;;;;13.82;7.60;;;;;;;;;;5114951;28;20058;-79
2021/01/28 02:28:07;;;;;;;12.82;7.32;;;;;;;;;;5114902;28;20020;-80
2021/01/28 02:30:34;;;;;;;12.13;8.27;;;;;;;;;;5114850;28;20024;-78
2021/01/28 02:33:00;;;;;;;10.70;6.68;;;;;;;;;;5096586;28;20024;-80
2021/01/28 02:35:29;;;;;;;8.50;5.22;;;;;;;;;;5114999;28;20051;-79
2021/01/28 02:37:56;;;;;;;7.95;5.30;;;;;;;;;;5114804;28;20036;-78
2021/01/28 02:40:23;;;;;;;7.38;4.68;;;;;;;;;;5096516;28;20035;-79
2021/01/28 02:42:49;;;;;;;10.25;6.45;;;;;;;;;;5114924;28;20059;-78
2021/01/28 02:45:23;;;;;;;9.57;5.90;;;;;;;;;;5114788;28;20038;-81
2021/01/28 02:47:53;;;;;;;10.05;6.47;;;;;;;;;;5115088;28;20087;-79
2021/01/28 02:50:20;;;;;;;9.10;5.35;;;;;;;;;;5114507;28;20097;-79
2021/01/28 02:52:46;;;;;;;8.75;4.95;;;;;;;;;;5114457;28;20030;-79
2021/01/28 02:55:14;;;;;;;7.07;5.10;;;;;;;;;;5114482;28;20498;-78
2021/01/28 02:57:40;;;;;;;8.05;5.07;;;;;;;;;;5114584;28;20059;-78
2021/01/28 03:00:12;;;;;;;8.55;5.43;;;;;;;;;;5114332;28;20406;-78
2021/01/28 03:02:38;;;;;;;6.65;4.88;;;;;;;;;;5114191;28;20106;-78
2021/01/28 03:05:04;;;;;;;6.45;4.32;;;;;;;;;;5114214;28;20035;-80
2021/01/28 03:07:30;;;;;;;9.68;4.47;;;;;;;;;;5114227;28;20030;-78
2021/01/28 03:09:56;;;;;;;9.52;3.88;;;;;;;;;;5114480;28;20030;-79
2021/01/28 03:12:23;;;;;;;6.30;3.78;;;;;;;;;;5114326;28;20027;-79
2021/01/28 03:14:49;;;;;;;11.63;5.07;;;;;;;;;;5114231;28;20076;-77
2021/01/28 03:17:15;;;;;;;13.40;5.47;;;;;;;;;;5114148;28;20051;-79
2021/01/28 03:19:41;;;;;;;8.60;5.97;;;;;;;;;;5114049;28;20483;-78
2021/01/28 03:22:07;;;;;;;11.85;6.90;;;;;;;;;;5114112;28;20031;-79
2021/01/28 03:24:33;;;;;;;10.82;5.43;;;;;;;;;;5114150;28;20050;-80
2021/01/28 03:26:59;;;;;;;9.32;6.50;;;;;;;;;;5113950;28;20027;-79
2021/01/28 03:29:25;;;;;;;14.73;8.75;;;;;;;;;;5114390;28;20023;-79
2021/01/28 03:31:51;;;;;;;19.98;9.50;;;;;;;;;;5101023;28;20028;-78
2021/01/28 03:34:17;;;;;;;17.92;7.97;;;;;;;;;;5093474;28;20024;-80
2021/01/28 03:36:44;;;;;;;12.30;6.40;;;;;;;;;;5093604;28;20051;-78
2021/01/28 03:39:10;;;;;;;10.38;7.68;;;;;;;;;;5093625;28;20491;-81
2021/01/28 03:41:36;;;;;;;14.55;7.60;;;;;;;;;;5093398;28;20063;-80
2021/01/28 03:44:02;;;;;;;15.02;7.75;;;;;;;;;;5093615;28;20036;-79
2021/01/28 03:46:28;;;;;;;15.65;9.57;;;;;;;;;;5093316;28;20395;-81
2021/01/28 03:48:54;;;;;;;15.23;9.75;;;;;;;;;;5093492;28;20032;-79
2021/01/28 03:51:20;;;;;;;19.13;11.00;;;;;;;;;;5093443;28;20487;-78
2021/01/28 03:53:46;;;;;;;18.58;13.05;;;;;;;;;;5093294;28;20026;-80
2021/01/28 03:56:12;;;;;;;22.70;13.02;;;;;;;;;;5093152;28;20036;-79
2021/01/28 03:58:38;;;;;;;23.35;11.63;;;;;;;;;;5093459;28;20094;-80
2021/01/28 04:01:05;;;;;;;17.02;10.35;;;;;;;;;;5093521;28;20032;-79
2021/01/28 04:03:31;;;;;;;15.88;9.90;;;;;;;;;;5093332;28;20503;-81
2021/01/28 04:05:57;;;;;;;20.33;10.45;;;;;;;;;;5093304;28;20024;-80
2021/01/28 04:08:23;;;;;;;18.83;11.43;;;;;;;;;;5093210;28;20030;-78
2021/01/28 04:10:49;;;;;;;17.40;11.43;;;;;;;;;;5093167;28;20103;-81
2021/01/28 04:13:15;;;;;;;19.42;11.90;;;;;;;;;;5094034;28;20115;-79
2021/01/28 04:15:42;;;;;;;44.67;19.92;;;;;;;;;;5097341;28;20024;-81
2021/01/28 04:18:08;;;;;;;24.52;11.88;;;;;;;;;;5096978;28;20035;-78
2021/01/28 04:20:35;;;;;;;18.65;11.05;;;;;;;;;;5097152;28;20036;-81
2021/01/28 04:23:01;;;;;;;18.30;10.48;;;;;;;;;;5097103;28;20025;-79
2021/01/28 04:25:28;;;;;;;15.05;10.45;;;;;;;;;;5096814;28;20032;-78
2021/01/28 04:27:54;;;;;;;16.27;11.10;;;;;;;;;;5096881;28;20061;-81
2021/01/28 04:30:23;;;;;;;17.90;10.00;;;;;;;;;;5096826;28;20060;-78
2021/01/28 04:32:49;;;;;;;13.70;7.40;;;;;;;;;;5096760;28;20023;-80
2021/01/28 04:35:15;;;;;;;14.77;7.93;;;;;;;;;;5096888;28;20031;-78
2021/01/28 04:37:41;;;;;;;11.18;6.97;;;;;;;;;;5096692;28;20031;-79
2021/01/28 04:40:12;;;;;;;12.65;7.13;;;;;;;;;;5096715;28;20021;-80
2021/01/28 04:42:41;;;;;;;12.27;7.47;;;;;;;;;;5096538;28;20031;-81
2021/01/28 04:45:08;;;;;;;8.00;5.32;;;;;;;;;;5096540;28;20542;-81
2021/01/28 04:47:36;;;;;;;13.23;8.70;;;;;;;;;;5078644;28;20024;-78
2021/01/28 04:50:02;;;;;;;11.85;7.53;;;;;;;;;;5096520;28;20086;-79
2021/01/28 04:52:30;;;;;;;11.38;6.55;;;;;;;;;;5096372;28;20112;-77
2021/01/28 04:54:57;;;;;;;10.25;7.03;;;;;;;;;;5096357;28;20031;-77
2021/01/28 04:57:23;;;;;;;13.95;7.03;;;;;;;;;;5096121;28;20051;-81
2021/01/28 04:59:51;;;;;;;7.95;6.35;;;;;;;;;;5096398;28;20031;-80
2021/01/28 05:02:22;;;;;;;10.38;5.97;;;;;;;;;;5078015;28;20020;-80
2021/01/28 05:04:52;;;;;;;11.35;7.18;;;;;;;;;;5096048;28;20036;-80
2021/01/28 05:07:29;;;;;;;12.55;6.45;;;;;;;;;;5096118;28;20157;-79
2021/01/28 05:10:05;;;;;;;8.57;6.53;;;;;;;;;;5096254;28;20097;-78
2021/01/28 05:12:31;;;;;;;9.55;7.00;;;;;;;;;;5096061;28;20043;-78
2021/01/28 05:15:16;;;;;;;7.65;5.25;;;;;;;;;;5077932;28;20024;-80
2021/01/28 05:17:43;;;;;;;10.00;5.75;;;;;;;;;;5095909;28;20032;-82
2021/01/28 05:20:21;;;;;;;11.93;6.10;;;;;;;;;;5095785;28;20028;-81
2021/01/28 05:22:56;;;;;;;9.68;6.93;;;;;;;;;;5095887;28;20485;-80
2021/01/28 05:25:29;;;;;;;11.48;6.63;;;;;;;;;;5095553;28;20039;-81
2021/01/28 05:27:55;;;;;;;13.30;7.95;;;;;;;;;;5095715;28;20106;-80
2021/01/28 05:30:38;;;;;;;14.65;10.40;;;;;;;;;;5095931;28;20378;-78
2021/01/28 05:33:23;;;;;;;20.10;10.52;;;;;;;;;;5095595;28;20024;-82
2021/01/28 05:36:00;;;;;;;16.73;10.73;;;;;;;;;;5095575;28;20024;-79
2021/01/28 05:38:28;;;;;;;18.75;11.80;;;;;;;;;;5095522;28;20263;-82
2021/01/28 05:40:56;;;;;;;60.33;29.33;;;;;;;;;;5095492;28;20051;-82
2021/01/28 05:43:30;;;;;;;30.60;17.10;;;;;;;;;;5095382;28;20024;-82
2021/01/28 05:46:15;;;;;;;51.90;30.77;;;;;;;;;;5095327;28;20047;-80
2021/01/28 05:48:41;;;;;;;;;;;;;;;;;;5095579;28;20051;-83
2021/01/28 05:51:13;;;;;;;53.78;31.42;;;;;;;;;;5095191;28;19904;-83
2021/01/28 05:53:39;;;;;;;32.97;20.08;;;;;;;;;;5095257;28;20031;-83
2021/01/28 05:56:10;;;;;;;39.55;24.90;;;;;;;;;;5104604;28;20098;-80
2021/01/28 05:58:49;;;;;;;34.60;20.05;;;;;;;;;;5084393;28;20027;-82
2021/01/28 06:01:29;;;;;;;41.78;27.48;;;;;;;;;;5076510;28;20039;-80
2021/01/28 06:03:58;;;;;;;25.05;16.35;;;;;;;;;;5101878;28;20036;-82
2021/01/28 06:06:33;;;;;;;25.42;16.38;;;;;;;;;;5080544;28;20028;-83
2021/01/28 06:08:59;;;;;;;20.42;12.73;;;;;;;;;;5101646;28;20016;-83
2021/01/28 06:11:25;;;;;;;20.67;13.38;;;;;;;;;;5101693;28;20028;-79
2021/01/28 06:14:03;;;;;;;16.38;10.23;;;;;;;;;;5102693;28;20036;-78
2021/01/28 06:16:35;;;;;;;13.30;10.05;;;;;;;;;;5101549;28;20016;-83
2021/01/28 06:19:21;;;;;;;16.33;11.25;;;;;;;;;;5086124;28;20028;-84
2021/01/28 06:21:57;;;;;;;30.17;16.48;;;;;;;;;;5097068;28;20027;-81
2021/01/28 06:24:27;;;;;;;21.13;15.43;;;;;;;;;;5103381;28;20039;-83
2021/01/28 06:27:03;;;;;;;19.55;13.50;;;;;;;;;;5100675;28;20032;-80
2021/01/28 06:29:35;;;;;;;17.88;12.70;;;;;;;;;;5112102;28;21138;-83
2021/01/28 06:32:21;;;;;;;17.65;11.95;;;;;;;;;;5110267;28;20032;-79
2021/01/28 06:34:54;;;;;;;15.75;10.85;;;;;;;;;;5113392;28;20032;-80
2021/01/28 06:37:39;;;;;;;17.85;11.50;;;;;;;;;;5094336;28;20063;-80
2021/01/28 06:40:08;;;;;;;18.08;11.60;;;;;;;;;;5113265;28;20028;-82
2021/01/28 06:42:41;;;;;;;18.75;12.60;;;;;;;;;;5111822;28;20111;-81
2021/01/28 06:45:10;;;;;;;16.52;11.57;;;;;;;;;;5111656;28;20032;-80
2021/01/28 06:47:56;;;;;;;29.15;18.67;;;;;;;;;;5111401;28;20536;-81
2021/01/28 06:50:30;;;;;;;35.33;22.70;;;;;;;;;;5095040;28;20142;-82
2021/01/28 06:52:56;;;;;;;40.10;23.52;;;;;;;;;;5111772;28;20023;-83
2021/01/28 06:55:32;;;;;;;25.95;16.70;;;;;;;;;;5111580;28;20042;-79
2021/01/28 06:58:01;;;;;;;25.70;16.90;;;;;;;;;;5111399;28;20786;-82
2021/01/28 07:00:30;;;;;;;37.63;24.63;;;;;;;;;;5111915;28;20028;-79
2021/01/28 07:03:06;;;;;;;32.03;22.30;;;;;;;;;;5111739;28;20027;-79
2021/01/28 07:05:42;;;;;;;28.63;19.92;;;;;;;;;;5111249;28;20107;-73
2021/01/28 07:08:26;;;;;;;19.92;12.80;;;;;;;;;;5111622;28;20035;-78
2021/01/28 07:10:52;;;;;;;;;;;;;;;;;;5111886;28;20031;-78
2021/01/28 07:13:24;;;;;;;26.67;17.40;;;;;;;;;;5111394;28;20278;-81
2021/01/28 07:15:53;;;;;;;24.58;16.60;;;;;;;;;;5111082;28;20055;-82
2021/01/28 07:18:24;;;;;;;19.65;11.63;;;;;;;;;;5111371;28;20032;-78
2021/01/28 07:20:58;;;;;;;13.70;9.30;;;;;;;;;;5110434;28;20065;-79
2021/01/28 07:23:27;;;;;;;14.95;10.75;;;;;;;;;;5109743;28;20043;-78
2021/01/28 07:26:05;;;;;;;18.58;13.02;;;;;;;;;;5104951;28;20541;-81
2021/01/28 07:28:32;;;;;;;17.98;11.48;;;;;;;;;;5109704;28;20054;-79
2021/01/28 07:31:16;;;;;;;17.13;10.43;;;;;;;;;;5111296;28;20032;-80
2021/01/28 07:33:47;;;;;;;11.30;7.22;;;;;;;;;;5111590;28;20085;-81
2021/01/28 07:36:23;;;;;;;11.93;7.78;;;;;;;;;;5111241;28;20035;-79
2021/01/28 07:39:12;;;;;;;14.93;8.48;;;;;;;;;;5109874;28;20054;-81
2021/01/28 07:41:40;;;;;;;9.95;6.95;;;;;;;;;;5089017;28;20034;-80
2021/01/28 07:44:25;;;;;;;14.57;8.27;;;;;;;;;;5090502;28;20497;-81
2021/01/28 07:46:52;;;;;;;7.57;5.15;;;;;;;;;;5090897;28;20058;-81
2021/01/28 07:49:36;;;;;;;12.38;7.63;;;;;;;;;;5100888;28;20031;-79
2021/01/28 07:52:21;;;;;;;12.48;6.55;;;;;;;;;;5115130;28;20371;-77
2021/01/28 07:54:47;;;;;;;11.48;6.18;;;;;;;;;;5114883;28;20489;-79
2021/01/28 07:57:33;;;;;;;12.10;6.68;;;;;;;;;;5097345;28;20067;-84
2021/01/28 08:00:06;;;;;;;11.50;6.53;;;;;;;;;;5087642;28;20027;-81
2021/01/28 08:02:34;;;;;;;9.27;5.47;;;;;;;;;;5113668;28;20435;-76
2021/01/28 08:05:19;;;;;;;9.13;6.15;;;;;;;;;;5106048;28;20043;-82
2021/01/28 08:07:45;;;;;;;;;;;;;;;;;;5102077;28;20462;-80
2021/01/28 08:10:30;;;;;;;12.02;9.52;;;;;;;;;;5115099;28;19908;-78
2021/01/28 08:12:56;;;;;;;15.35;9.88;;;;;;;;;;5114644;28;20051;-78
2021/01/28 08:15:40;;;;;;;17.83;11.27;;;;;;;;;;5114481;28;20027;-77
2021/01/28 08:18:23;;;;;;;12.75;8.10;;;;;;;;;;5112790;28;20111;-79
2021/01/28 08:20:50;;;;;;;16.45;11.15;;;;;;;;;;5083430;28;20043;-80
2021/01/28 08:23:26;;;;;;;14.98;9.77;;;;;;;;;;5109479;28;20036;-83
2021/01/28 08:25:52;;;;;;;12.38;9.02;;;;;;;;;;5114808;28;20123;-81
2021/01/28 08:28:18;;;;;;;12.73;9.10;;;;;;;;;;5114621;28;20028;-81
2021/01/28 08:30:45;;;;;;;8.57;6.72;;;;;;;;;;5114710;28;20063;-80
2021/01/28 08:33:29;;;;;;;8.77;4.93;;;;;;;;;;5114359;28;20502;-78
2021/01/28 08:35:57;;;;;;;6.45;4.70;;;;;;;;;;5114548;28;20020;-82
2021/01/28 08:38:28;;;;;;;8.48;5.22;;;;;;;;;;5114669;28;20124;-81
2021/01/28 08:41:17;;;;;;;16.08;9.77;;;;;;;;;;5114604;28;20030;-81
2021/01/28 08:43:43;;;;;;;10.15;7.60;;;;;;;;;;5101300;28;20054;-79
2021/01/28 08:46:19;;;;;;;8.43;6.30;;;;;;;;;;5114198;28;20028;-81
2021/01/28 08:48:46;;;;;;;12.68;10.05;;;;;;;;;;5114343;28;20117;-79
2021/01/28 08:51:22;;;;;;;9.10;6.25;;;;;;;;;;5114300;28;20059;-79
2021/01/28 08:53:59;;;;;;;10.93;6.60;;;;;;;;;;5113478;28;20425;-79
2021/01/28 08:56:28;;;;;;;8.60;5.88;;;;;;;;;;5107496;28;20128;-78
2021/01/28 08:58:55;;;;;;;11.23;8.38;;;;;;;;;;5101721;28;20390;-79
2021/01/28 09:01:21;;;;;;;8.38;5.32;;;;;;;;;;5102065;28;20487;-78
2021/01/28 09:03:53;;;;;;;9.38;5.85;;;;;;;;;;5093450;28;20028;-77
2021/01/28 09:06:20;;;;;;;7.32;4.95;;;;;;;;;;5094496;28;20442;-78
2021/01/28 09:08:46;;;;;;;4.88;3.53;;;;;;;;;;5109921;28;20027;-79
2021/01/28 09:11:12;;;;;;;4.78;3.05;;;;;;;;;;5103160;28;20031;-78
2021/01/28 09:13:38;;;;;;;8.20;5.53;;;;;;;;;;5093500;28;20032;-78
2021/01/28 09:16:14;;;;;;;8.32;3.28;;;;;;;;;;5093578;28;20520;-79
2021/01/28 09:18:45;;;;;;;6.10;4.07;;;;;;;;;;5095881;28;20078;-78
2021/01/28 09:21:15;;;;;;;6.38;4.60;;;;;;;;;;5082057;28;20551;-79
2021/01/28 09:23:58;;;;;;;5.30;3.83;;;;;;;;;;5102989;28;20042;-77
2021/01/28 09:26:26;;;;;;;6.50;4.32;;;;;;;;;;5103406;28;20076;-81
2021/01/28 09:28:52;;;;;;;4.53;4.07;;;;;;;;;;5109923;28;20032;-78
2021/01/28 09:31:20;;;;;;;9.50;5.85;;;;;;;;;;5106666;28;20568;-78
2021/01/28 09:33:46;;;;;;;5.53;4.57;;;;;;;;;;5103880;28;20432;-78
2021/01/28 09:36:18;;;;;;;7.50;4.03;;;;;;;;;;5109125;28;20031;-78
2021/01/28 09:39:03;;;;;;;7.22;4.40;;;;;;;;;;5099462;28;20024;-80
2021/01/28 09:41:34;;;;;;;8.73;5.72;;;;;;;;;;5093123;28;20028;-80
2021/01/28 09:44:01;;;;;;;10.57;7.00;;;;;;;;;;5092712;28;20451;-80
2021/01/28 09:46:30;;;;;;;8.38;4.57;;;;;;;;;;5096019;28;20062;-78
2021/01/28 09:48:58;;;;;;;9.35;6.40;;;;;;;;;;5092822;28;20036;-78
2021/01/28 09:51:27;;;;;;;7.65;5.30;;;;;;;;;;5108022;28;20032;-78
2021/01/28 09:54:01;;;;;;;9.32;6.50;;;;;;;;;;5106628;28;20028;-77
2021/01/28 09:56:28;;;;;;;8.27;5.22;;;;;;;;;;5094506;28;20140;-80
2021/01/28 09:58:54;;;;;;;10.18;5.03;;;;;;;;;;5097618;28;20023;-78
2021/01/28 10:01:20;;;;;;;9.82;6.13;;;;;;;;;;5112868;28;20023;-78
2021/01/28 10:03:46;;;;;;;7.65;4.50;;;;;;;;;;5111742;28;20019;-80
2021/01/28 10:06:13;;;;;;;8.45;4.50;;;;;;;;;;5112956;28;20471;-77
2021/01/28 10:08:39;;;;;;;7.93;5.47;;;;;;;;;;5112702;28;20112;-79
2021/01/28 10:11:06;;;;;;;8.35;5.10;;;;;;;;;;5111982;28;20414;-78
2021/01/28 10:13:33;;;;;;;11.13;5.50;;;;;;;;;;5112677;28;20063;-79
2021/01/28 10:15:59;;;;;;;8.25;6.13;;;;;;;;;;5109557;28;20028;-77
2021/01/28 10:18:25;;;;;;;7.65;5.63;;;;;;;;;;5101207;28;20077;-80
2021/01/28 10:20:51;;;;;;;7.00;4.75;;;;;;;;;;5091814;28;20541;-79
2021/01/28 10:23:17;;;;;;;8.73;5.70;;;;;;;;;;5095890;28;20028;-78
2021/01/28 10:25:43;;;;;;;10.95;5.55;;;;;;;;;;5091285;28;20039;-79
2021/01/28 10:28:09;;;;;;;9.52;4.75;;;;;;;;;;5091806;28;20676;-78
2021/01/28 10:30:35;;;;;;;5.97;4.57;;;;;;;;;;5091686;28;20054;-81
2021/01/28 10:33:02;;;;;;;6.88;4.93;;;;;;;;;;5111801;28;20035;-79
2021/01/28 10:35:30;;;;;;;9.55;5.88;;;;;;;;;;5112516;28;20110;-80
2021/01/28 10:37:57;;;;;;;17.13;11.93;;;;;;;;;;5104773;28;20017;-80
2021/01/28 10:40:24;;;;;;;12.13;6.30;;;;;;;;;;5099929;28;20167;-79
2021/01/28 10:42:53;;;;;;;10.93;6.85;;;;;;;;;;5084367;28;20028;-78
2021/01/28 10:45:20;;;;;;;10.13;5.20;;;;;;;;;;5100920;28;20487;-76
2021/01/28 10:47:47;;;;;;;13.40;7.38;;;;;;;;;;5083632;28;20119;-79
2021/01/28 10:50:14;;;;;;;15.68;9.60;;;;;;;;;;5081361;28;20030;-83
2021/01/28 10:52:40;;;;;;;15.80;8.38;;;;;;;;;;5096170;28;20059;-79
2021/01/28 10:55:08;;;;;;;11.20;6.72;;;;;;;;;;5092958;28;20069;-80
2021/01/28 10:57:34;;;;;;;8.02;5.35;;;;;;;;;;5091570;28;20048;-80
2021/01/28 11:00:00;;;;;;;9.55;6.47;;;;;;;;;;5106078;28;20621;-76
2021/01/28 11:02:27;;;;;;;20.45;11.15;;;;;;;;;;5105466;28;20036;-78
2021/01/28 11:04:53;;;;;;;8.75;5.70;;;;;;;;;;5096883;28;20558;-79
2021/01/28 11:07:19;;;;;;;7.47;4.53;;;;;;;;;;5091517;28;20073;-77
2021/01/28 11:09:45;;;;;;;11.73;4.60;;;;;;;;;;5098968;28;20023;-80
2021/01/28 11:12:11;;;;;;;7.88;3.97;;;;;;;;;;5101522;28;20028;-78
2021/01/28 11:14:37;;;;;;;10.65;6.45;;;;;;;;;;5103291;28;20073;-80
2021/01/28 11:17:03;;;;;;;23.17;15.70;;;;;;;;;;5101275;28;20032;-77
2021/01/28 11:19:29;;;;;;;8.68;5.43;;;;;;;;;;5104686;28;20036;-79
2021/01/28 11:21:58;;;;;;;10.95;6.35;;;;;;;;;;5111189;28;20031;-77
2021/01/28 11:24:25;;;;;;;9.10;6.10;;;;;;;;;;5110257;28;20039;-81
2021/01/28 11:26:51;;;;;;;12.25;9.82;;;;;;;;;;5076434;28;20073;-79
2021/01/28 11:29:22;;;;;;;19.45;13.35;;;;;;;;;;5095432;28;20027;-79
2021/01/28 11:31:48;;;;;;;11.27;6.65;;;;;;;;;;5096981;28;20040;-79
2021/01/28 11:34:14;;;;;;;12.27;7.68;;;;;;;;;;5091279;28;20024;-81
2021/01/28 11:36:40;;;;;;;4.93;3.13;;;;;;;;;;5091295;28;20387;-82
2021/01/28 11:39:06;;;;;;;4.82;2.85;;;;;;;;;;5091087;28;20042;-79
2021/01/28 11:41:35;;;;;;;12.70;7.75;;;;;;;;;;5091201;28;20403;-78
2021/01/28 11:44:01;;;;;;;11.02;7.93;;;;;;;;;;5104830;28;20023;-78
2021/01/28 11:46:28;;;;;;;12.23;7.43;;;;;;;;;;5108363;28;20047;-83
2021/01/28 11:48:54;;;;;;;12.40;8.45;;;;;;;;;;5090674;28;20035;-79
2021/01/28 11:51:20;;;;;;;13.50;9.38;;;;;;;;;;5091074;28;20038;-79
2021/01/28 11:53:46;;;;;;;4.47;2.95;;;;;;;;;;5072987;28;20084;-80
2021/01/28 11:56:12;;;;;;;7.60;4.00;;;;;;;;;;5072113;28;20575;-81
2021/01/28 11:58:38;;;;;;;7.10;4.90;;;;;;;;;;5078238;28;20024;-80
2021/01/28 12:01:04;;;;;;;5.30;4.07;;;;;;;;;;5103293;28;20470;-78
2021/01/28 12:03:30;;;;;;;10.45;7.70;;;;;;;;;;5111206;28;20031;-79
2021/01/28 12:05:56;;;;;;;11.38;8.30;;;;;;;;;;5110344;28;20023;-77
2021/01/28 12:08:22;;;;;;;8.23;5.72;;;;;;;;;;5095783;28;20020;-77
2021/01/28 12:10:49;;;;;;;7.03;5.00;;;;;;;;;;5110123;28;20039;-80
2021/01/28 12:13:15;;;;;;;9.95;6.13;;;;;;;;;;5108573;28;20479;-76
2021/01/28 12:15:42;;;;;;;15.93;9.82;;;;;;;;;;5100571;28;20433;-79
2021/01/28 12:18:08;;;;;;;11.77;8.48;;;;;;;;;;5103876;28;20111;-77
2021/01/28 12:20:34;;;;;;;14.90;9.20;;;;;;;;;;5093861;28;20032;-79
2021/01/28 12:23:00;;;;;;;10.93;6.85;;;;;;;;;;5090250;28;20063;-79
2021/01/28 12:25:26;;;;;;;14.45;9.02;;;;;;;;;;5092262;28;20062;-79
2021/01/28 12:27:53;;;;;;;18.15;13.23;;;;;;;;;;5101339;28;20028;-79
2021/01/28 12:30:20;;;;;;;14.90;9.77;;;;;;;;;;5110349;28;20031;-78
2021/01/28 12:32:47;;;;;;;13.35;6.85;;;;;;;;;;5111810;28;20035;-80
2021/01/28 12:35:13;;;;;;;15.25;9.07;;;;;;;;;;5113536;28;20028;-78
2021/01/28 12:37:39;;;;;;;19.80;12.23;;;;;;;;;;5106885;28;20028;-78
2021/01/28 12:40:07;;;;;;;30.20;17.08;;;;;;;;;;5111590;28;20066;-81
2021/01/28 12:42:33;;;;;;;14.52;9.32;;;;;;;;;;5110770;28;20032;-79
2021/01/28 12:45:00;;;;;;;9.65;6.55;;;;;;;;;;5113734;28;20035;-78
2021/01/28 12:47:26;;;;;;;17.90;9.68;;;;;;;;;;5105363;28;20035;-78
2021/01/28 12:49:53;;;;;;;14.13;9.35;;;;;;;;;;5100724;28;20047;-78
2021/01/28 12:52:19;;;;;;;17.52;11.07;;;;;;;;;;5106767;28;20495;-77
2021/01/28 12:54:45;;;;;;;16.52;9.85;;;;;;;;;;5104239;28;20103;-80
2021/01/28 12:57:11;;;;;;;20.27;12.82;;;;;;;;;;5109466;28;20048;-78
2021/01/28 12:59:37;;;;;;;12.73;8.23;;;;;;;;;;5109320;28;20024;-80
2021/01/28 13:02:04;;;;;;;11.27;8.13;;;;;;;;;;5105649;28;20513;-82
2021/01/28 13:04:30;;;;;;;13.25;8.05;;;;;;;;;;5094940;27;20115;-80
2021/01/28 13:06:56;;;;;;;15.48;9.40;;;;;;;;;;5102663;28;20028;-80
2021/01/28 13:09:22;;;;;;;23.00;13.18;;;;;;;;;;5099215;28;20032;-78
2021/01/28 13:11:48;;;;;;;11.98;8.65;;;;;;;;;;5106049;28;20145;-77
2021/01/28 13:14:14;;;;;;;10.18;7.00;;;;;;;;;;5105911;28;20024;-79
2021/01/28 13:16:40;;;;;;;9.32;6.85;;;;;;;;;;5102141;27;20024;-81
2021/01/28 13:19:06;;;;;;;11.27;7.18;;;;;;;;;;5103878;27;20032;-78
2021/01/28 13:21:33;;;;;;;10.40;7.32;;;;;;;;;;5095224;28;20071;-78
2021/01/28 13:23:59;;;;;;;16.02;10.27;;;;;;;;;;5081591;28;20081;-82
2021/01/28 13:26:25;;;;;;;9.38;5.28;;;;;;;;;;5102029;28;20034;-79
2021/01/28 13:28:51;;;;;;;10.57;7.38;;;;;;;;;;5103435;28;20123;-80
2021/01/28 13:31:18;;;;;;;13.57;9.07;;;;;;;;;;5102857;28;20065;-78
2021/01/28 13:33:44;;;;;;;11.60;6.28;;;;;;;;;;5097898;28;20445;-78
2021/01/28 13:36:10;;;;;;;9.50;6.32;;;;;;;;;;5103504;28;20023;-80
2021/01/28 13:38:36;;;;;;;8.88;5.40;;;;;;;;;;5102721;28;20031;-77
2021/01/28 13:41:03;;;;;;;10.35;6.50;;;;;;;;;;5103781;28;20027;-79
2021/01/28 13:43:29;;;;;;;11.57;8.40;;;;;;;;;;5104583;28;20032;-79
2021/01/28 13:45:55;;;;;;;13.43;8.93;;;;;;;;;;5110182;28;20115;-79
2021/01/28 13:48:21;;;;;;;12.60;8.07;;;;;;;;;;5101000;28;20028;-78
2021/01/28 13:50:50;;;;;;;16.10;9.52;;;;;;;;;;5101608;28;20486;-79
2021/01/28 13:53:16;;;;;;;15.30;10.30;;;;;;;;;;5103994;28;20031;-77
2021/01/28 13:55:42;;;;;;;24.48;14.20;;;;;;;;;;5102292;28;20035;-80
2021/01/28 13:58:08;;;;;;;25.45;15.48;;;;;;;;;;5101978;28;20067;-80
2021/01/28 14:00:34;;;;;;;15.32;9.68;;;;;;;;;;5100817;28;20046;-80
2021/01/28 14:03:00;;;;;;;15.73;10.43;;;;;;;;;;5093962;28;20499;-79
2021/01/28 14:05:27;;;;;;;13.40;8.82;;;;;;;;;;5111853;28;20414;-80
2021/01/28 14:07:53;;;;;;;10.25;6.38;;;;;;;;;;5114030;28;20463;-80
2021/01/28 14:10:22;;;;;;;12.57;8.82;;;;;;;;;;5114245;28;20555;-79
2021/01/28 14:12:48;;;;;;;21.98;15.77;;;;;;;;;;5106254;28;20039;-77
2021/01/28 14:15:15;;;;;;;30.98;18.80;;;;;;;;;;5093579;28;20040;-78
2021/01/28 14:17:41;;;;;;;16.23;12.57;;;;;;;;;;5093036;28;20133;-78
2021/01/28 14:20:08;;;;;;;18.88;15.13;;;;;;;;;;5093793;28;20028;-77
2021/01/28 14:22:34;;;;;;;28.85;20.40;;;;;;;;;;5093230;28;20023;-78
2021/01/28 14:25:00;;;;;;;30.42;21.30;;;;;;;;;;5093262;28;20036;-79
2021/01/28 14:27:26;;;;;;;8.38;7.05;;;;;;;;;;5093469;28;20028;-80
2021/01/28 14:29:52;;;;;;;27.70;18.45;;;;;;;;;;5075114;28;20070;-78
2021/01/28 14:32:18;;;;;;;33.15;22.58;;;;;;;;;;5095599;28;20028;-78
2021/01/28 14:34:45;;;;;;;45.40;29.77;;;;;;;;;;5106585;28;20028;-80
2021/01/28 14:37:11;;;;;;;17.15;12.65;;;;;;;;;;5114759;28;20110;-80
2021/01/28 14:39:37;;;;;;;57.92;37.08;;;;;;;;;;5114670;28;20379;-77